sensor_id;sensor_type;location;lat;lon;timestamp;temperature;humidity
43671;DHT22;29267;50.906;7.248;2023-04-24T00:00:46;10.70;99.90
43671;DHT22;29267;50.906;7.248;2023-04-24T00:03:11;10.70;99.90
43671;DHT22;29267;50.906;7.248;2023-04-24T00:05:38;10.70;99.90
43671;DHT22;29267;50.906;7.248;2023-04-24T00:08:06;10.70;99.90
43671;DHT22;29267;50.906;7.248;2023-04-24T00:10:31;10.70;99.90
43671;DHT22;29267;50.906;7.248;2023-04-24T00:12:57;10.70;99.90
43671;DHT22;29267;50.906;7.248;2023-04-24T00:15:23;10.70;99.90
43671;DHT22;29267;50.906;7.248;2023-04-24T00:17:48;10.70;99.90
43671;DHT22;29267;50.906;7.248;2023-04-24T00:20:14;10.70;99.90
43671;DHT22;29267;50.906;7.248;2023-04-24T00:22:40;10.70;99.90
43671;DHT22;29267;50.906;7.248;2023-04-24T00:25:06;10.70;99.90
43671;DHT22;29267;50.906;7.248;2023-04-24T00:27:31;10.60;99.90
43671;DHT22;29267;50.906;7.248;2023-04-24T00:29:57;10.60;99.90
43671;DHT22;29267;50.906;7.248;2023-04-24T00:32:23;10.60;99.90
43671;DHT22;29267;50.906;7.248;2023-04-24T00:34:48;10.60;99.90
43671;DHT22;29267;50.906;7.248;2023-04-24T00:37:14;10.60;99.90
43671;DHT22;29267;50.906;7.248;2023-04-24T00:39:39;10.60;99.90
43671;DHT22;29267;50.906;7.248;2023-04-24T00:42:05;10.60;99.90
43671;DHT22;29267;50.906;7.248;2023-04-24T00:44:33;10.60;99.90
43671;DHT22;29267;50.906;7.248;2023-04-24T00:46:59;10.60;99.90
43671;DHT22;29267;50.906;7.248;2023-04-24T00:49:26;10.60;99.90
43671;DHT22;29267;50.906;7.248;2023-04-24T00:51:51;10.60;99.90
43671;DHT22;29267;50.906;7.248;2023-04-24T00:54:17;10.60;99.90
43671;DHT22;29267;50.906;7.248;2023-04-24T00:56:44;10.60;99.90
43671;DHT22;29267;50.906;7.248;2023-04-24T00:59:10;10.60;99.90
43671;DHT22;29267;50.906;7.248;2023-04-24T01:01:36;10.60;99.90
43671;DHT22;29267;50.906;7.248;2023-04-24T01:04:02;10.60;99.90
43671;DHT22;29267;50.906;7.248;2023-04-24T01:06:29;10.70;99.90
43671;DHT22;29267;50.906;7.248;2023-04-24T01:08:57;10.70;99.90
43671;DHT22;29267;50.906;7.248;2023-04-24T01:11:24;10.70;99.90
43671;DHT22;29267;50.906;7.248;2023-04-24T01:13:51;10.70;99.90
43671;DHT22;29267;50.906;7.248;2023-04-24T01:16:17;10.70;99.90
43671;DHT22;29267;50.906;7.248;2023-04-24T01:18:43;10.70;99.90
43671;DHT22;29267;50.906;7.248;2023-04-24T01:21:10;10.70;99.90
43671;DHT22;29267;50.906;7.248;2023-04-24T01:23:38;10.70;99.90
43671;DHT22;29267;50.906;7.248;2023-04-24T01:26:04;10.80;99.90
43671;DHT22;29267;50.906;7.248;2023-04-24T01:28:30;10.80;99.90
43671;DHT22;29267;50.906;7.248;2023-04-24T01:30:56;10.80;99.90
43671;DHT22;29267;50.906;7.248;2023-04-24T01:33:22;10.80;99.90
43671;DHT22;29267;50.906;7.248;2023-04-24T01:35:48;10.70;99.90
43671;DHT22;29267;50.906;7.248;2023-04-24T01:38:14;10.80;99.90
43671;DHT22;29267;50.906;7.248;2023-04-24T01:40:40;10.80;99.90
43671;DHT22;29267;50.906;7.248;2023-04-24T01:43:06;10.80;99.90
43671;DHT22;29267;50.906;7.248;2023-04-24T01:45:32;10.80;99.90
43671;DHT22;29267;50.906;7.248;2023-04-24T01:47:57;10.70;99.90
43671;DHT22;29267;50.906;7.248;2023-04-24T01:50:24;10.70;99.90
43671;DHT22;29267;50.906;7.248;2023-04-24T01:52:49;10.50;99.90
43671;DHT22;29267;50.906;7.248;2023-04-24T01:55:15;10.40;99.90
43671;DHT22;29267;50.906;7.248;2023-04-24T01:57:40;10.30;99.90
43671;DHT22;29267;50.906;7.248;2023-04-24T02:00:06;10.30;99.90
43671;DHT22;29267;50.906;7.248;2023-04-24T02:02:32;10.20;99.90
43671;DHT22;29267;50.906;7.248;2023-04-24T02:04:58;10.20;99.90
43671;DHT22;29267;50.906;7.248;2023-04-24T02:07:24;10.10;99.90
43671;DHT22;29267;50.906;7.248;2023-04-24T02:09:50;10.10;99.90
43671;DHT22;29267;50.906;7.248;2023-04-24T02:12:16;10.10;99.90
43671;DHT22;29267;50.906;7.248;2023-04-24T02:14:43;10.10;99.90
43671;DHT22;29267;50.906;7.248;2023-04-24T02:17:09;10.00;99.90
43671;DHT22;29267;50.906;7.248;2023-04-24T02:19:34;10.00;99.90
43671;DHT22;29267;50.906;7.248;2023-04-24T02:22:00;10.00;99.90
43671;DHT22;29267;50.906;7.248;2023-04-24T02:24:25;10.00;99.90
43671;DHT22;29267;50.906;7.248;2023-04-24T02:26:51;10.00;99.90
43671;DHT22;29267;50.906;7.248;2023-04-24T02:29:17;10.00;99.90
43671;DHT22;29267;50.906;7.248;2023-04-24T02:31:43;9.90;99.90
43671;DHT22;29267;50.906;7.248;2023-04-24T02:34:09;9.90;99.90
43671;DHT22;29267;50.906;7.248;2023-04-24T02:36:34;9.90;99.90
43671;DHT22;29267;50.906;7.248;2023-04-24T02:39:00;9.90;99.90
43671;DHT22;29267;50.906;7.248;2023-04-24T02:41:26;9.80;99.90
43671;DHT22;29267;50.906;7.248;2023-04-24T02:43:57;9.70;99.90
43671;DHT22;29267;50.906;7.248;2023-04-24T02:46:22;9.70;99.90
43671;DHT22;29267;50.906;7.248;2023-04-24T02:48:48;9.60;99.90
43671;DHT22;29267;50.906;7.248;2023-04-24T02:51:14;9.60;99.90
43671;DHT22;29267;50.906;7.248;2023-04-24T02:53:39;9.50;99.90
43671;DHT22;29267;50.906;7.248;2023-04-24T02:56:05;9.40;99.90
43671;DHT22;29267;50.906;7.248;2023-04-24T02:58:30;9.40;99.90
43671;DHT22;29267;50.906;7.248;2023-04-24T03:00:56;9.30;99.90
43671;DHT22;29267;50.906;7.248;2023-04-24T03:03:22;9.30;99.90
43671;DHT22;29267;50.906;7.248;2023-04-24T03:05:47;9.30;99.90
43671;DHT22;29267;50.906;7.248;2023-04-24T03:08:13;9.30;99.90
43671;DHT22;29267;50.906;7.248;2023-04-24T03:10:39;9.30;99.90
43671;DHT22;29267;50.906;7.248;2023-04-24T03:13:05;9.30;99.90
43671;DHT22;29267;50.906;7.248;2023-04-24T03:15:31;9.30;99.90
43671;DHT22;29267;50.906;7.248;2023-04-24T03:17:56;9.20;99.90
43671;DHT22;29267;50.906;7.248;2023-04-24T03:20:22;9.20;99.90
43671;DHT22;29267;50.906;7.248;2023-04-24T03:22:48;9.20;99.90
43671;DHT22;29267;50.906;7.248;2023-04-24T03:25:13;9.20;99.90
43671;DHT22;29267;50.906;7.248;2023-04-24T03:27:39;9.10;99.90
43671;DHT22;29267;50.906;7.248;2023-04-24T03:30:06;9.10;99.90
43671;DHT22;29267;50.906;7.248;2023-04-24T03:32:32;9.10;99.90
43671;DHT22;29267;50.906;7.248;2023-04-24T03:34:58;9.10;99.90
43671;DHT22;29267;50.906;7.248;2023-04-24T03:37:23;9.10;99.90
43671;DHT22;29267;50.906;7.248;2023-04-24T03:39:49;9.00;99.90
43671;DHT22;29267;50.906;7.248;2023-04-24T03:42:15;8.90;99.90
43671;DHT22;29267;50.906;7.248;2023-04-24T03:44:40;8.90;99.90
43671;DHT22;29267;50.906;7.248;2023-04-24T03:47:06;8.90;99.90
43671;DHT22;29267;50.906;7.248;2023-04-24T03:49:31;8.80;99.90
43671;DHT22;29267;50.906;7.248;2023-04-24T03:51:57;8.80;99.90
43671;DHT22;29267;50.906;7.248;2023-04-24T03:54:22;8.80;99.90
43671;DHT22;29267;50.906;7.248;2023-04-24T03:56:48;8.70;99.90
43671;DHT22;29267;50.906;7.248;2023-04-24T03:59:14;8.70;99.90
43671;DHT22;29267;50.906;7.248;2023-04-24T04:01:39;8.70;99.90
43671;DHT22;29267;50.906;7.248;2023-04-24T04:04:05;8.70;99.90
43671;DHT22;29267;50.906;7.248;2023-04-24T04:06:31;8.60;99.90
43671;DHT22;29267;50.906;7.248;2023-04-24T04:08:57;8.50;99.90
43671;DHT22;29267;50.906;7.248;2023-04-24T04:11:23;8.40;99.90
43671;DHT22;29267;50.906;7.248;2023-04-24T04:13:49;8.40;99.90
43671;DHT22;29267;50.906;7.248;2023-04-24T04:16:14;8.30;99.90
43671;DHT22;29267;50.906;7.248;2023-04-24T04:18:42;8.20;99.90
43671;DHT22;29267;50.906;7.248;2023-04-24T04:21:08;8.20;99.90
43671;DHT22;29267;50.906;7.248;2023-04-24T04:23:33;8.20;99.90
43671;DHT22;29267;50.906;7.248;2023-04-24T04:25:59;8.30;99.90
43671;DHT22;29267;50.906;7.248;2023-04-24T04:28:25;8.40;99.90
43671;DHT22;29267;50.906;7.248;2023-04-24T04:30:51;8.40;99.90
43671;DHT22;29267;50.906;7.248;2023-04-24T04:33:20;8.40;99.90
43671;DHT22;29267;50.906;7.248;2023-04-24T04:35:46;8.50;99.90
43671;DHT22;29267;50.906;7.248;2023-04-24T04:38:14;8.60;99.90
43671;DHT22;29267;50.906;7.248;2023-04-24T04:40:40;8.60;99.90
43671;DHT22;29267;50.906;7.248;2023-04-24T04:43:06;8.60;99.90
43671;DHT22;29267;50.906;7.248;2023-04-24T04:45:31;8.70;99.90
43671;DHT22;29267;50.906;7.248;2023-04-24T04:47:59;8.70;99.90
43671;DHT22;29267;50.906;7.248;2023-04-24T04:50:28;8.70;99.90
43671;DHT22;29267;50.906;7.248;2023-04-24T04:52:54;8.70;99.90
43671;DHT22;29267;50.906;7.248;2023-04-24T04:55:20;8.70;99.90
43671;DHT22;29267;50.906;7.248;2023-04-24T04:57:46;8.80;99.90
43671;DHT22;29267;50.906;7.248;2023-04-24T05:00:12;8.80;99.90
43671;DHT22;29267;50.906;7.248;2023-04-24T05:02:38;8.80;99.90
43671;DHT22;29267;50.906;7.248;2023-04-24T05:05:05;8.80;99.90
43671;DHT22;29267;50.906;7.248;2023-04-24T05:07:31;8.80;99.90
43671;DHT22;29267;50.906;7.248;2023-04-24T05:09:56;8.80;99.90
43671;DHT22;29267;50.906;7.248;2023-04-24T05:12:22;8.80;99.90
43671;DHT22;29267;50.906;7.248;2023-04-24T05:14:48;8.80;99.90
43671;DHT22;29267;50.906;7.248;2023-04-24T05:17:13;8.80;99.90
43671;DHT22;29267;50.906;7.248;2023-04-24T05:19:39;8.80;99.90
43671;DHT22;29267;50.906;7.248;2023-04-24T05:22:04;8.90;99.90
43671;DHT22;29267;50.906;7.248;2023-04-24T05:24:33;8.80;99.90
43671;DHT22;29267;50.906;7.248;2023-04-24T05:26:59;8.80;99.90
43671;DHT22;29267;50.906;7.248;2023-04-24T05:29:25;8.90;99.90
43671;DHT22;29267;50.906;7.248;2023-04-24T05:31:51;8.90;99.90
43671;DHT22;29267;50.906;7.248;2023-04-24T05:34:17;8.80;99.90
43671;DHT22;29267;50.906;7.248;2023-04-24T05:36:43;8.80;99.90
43671;DHT22;29267;50.906;7.248;2023-04-24T05:39:09;8.90;99.90
43671;DHT22;29267;50.906;7.248;2023-04-24T05:41:35;8.80;99.90
43671;DHT22;29267;50.906;7.248;2023-04-24T05:44:00;8.80;99.90
43671;DHT22;29267;50.906;7.248;2023-04-24T05:46:26;8.80;99.90
43671;DHT22;29267;50.906;7.248;2023-04-24T05:48:52;8.80;99.90
43671;DHT22;29267;50.906;7.248;2023-04-24T05:51:17;8.90;99.90
43671;DHT22;29267;50.906;7.248;2023-04-24T05:53:43;8.90;99.90
43671;DHT22;29267;50.906;7.248;2023-04-24T05:56:08;8.90;99.90
43671;DHT22;29267;50.906;7.248;2023-04-24T05:58:34;8.90;99.90
43671;DHT22;29267;50.906;7.248;2023-04-24T06:01:00;8.90;99.90
43671;DHT22;29267;50.906;7.248;2023-04-24T06:03:27;8.90;99.90
43671;DHT22;29267;50.906;7.248;2023-04-24T06:05:53;8.90;99.90
43671;DHT22;29267;50.906;7.248;2023-04-24T06:08:18;8.90;99.90
43671;DHT22;29267;50.906;7.248;2023-04-24T06:10:45;8.90;99.90
43671;DHT22;29267;50.906;7.248;2023-04-24T06:13:10;8.80;99.90
43671;DHT22;29267;50.906;7.248;2023-04-24T06:15:36;8.90;99.90
43671;DHT22;29267;50.906;7.248;2023-04-24T06:18:03;8.90;99.90
43671;DHT22;29267;50.906;7.248;2023-04-24T06:20:28;8.80;99.90
43671;DHT22;29267;50.906;7.248;2023-04-24T06:22:54;8.90;99.90
43671;DHT22;29267;50.906;7.248;2023-04-24T06:25:20;8.80;99.90
43671;DHT22;29267;50.906;7.248;2023-04-24T06:27:45;8.80;99.90
43671;DHT22;29267;50.906;7.248;2023-04-24T06:30:11;8.80;99.90
43671;DHT22;29267;50.906;7.248;2023-04-24T06:32:37;8.80;99.90
43671;DHT22;29267;50.906;7.248;2023-04-24T06:35:03;8.80;99.90
43671;DHT22;29267;50.906;7.248;2023-04-24T06:37:29;8.80;99.90
43671;DHT22;29267;50.906;7.248;2023-04-24T06:39:55;8.90;99.90
43671;DHT22;29267;50.906;7.248;2023-04-24T06:42:21;8.90;99.90
43671;DHT22;29267;50.906;7.248;2023-04-24T06:44:47;9.10;99.90
43671;DHT22;29267;50.906;7.248;2023-04-24T06:47:13;9.10;99.90
43671;DHT22;29267;50.906;7.248;2023-04-24T06:49:41;9.00;99.90
43671;DHT22;29267;50.906;7.248;2023-04-24T06:52:07;9.00;99.90
43671;DHT22;29267;50.906;7.248;2023-04-24T06:54:33;9.00;99.90
43671;DHT22;29267;50.906;7.248;2023-04-24T06:56:59;9.00;99.90
43671;DHT22;29267;50.906;7.248;2023-04-24T06:59:26;8.90;99.90
43671;DHT22;29267;50.906;7.248;2023-04-24T07:01:52;8.80;99.90
43671;DHT22;29267;50.906;7.248;2023-04-24T07:04:18;8.70;99.90
43671;DHT22;29267;50.906;7.248;2023-04-24T07:06:45;8.70;99.90
43671;DHT22;29267;50.906;7.248;2023-04-24T07:09:11;8.60;99.90
43671;DHT22;29267;50.906;7.248;2023-04-24T07:11:39;8.60;99.90
43671;DHT22;29267;50.906;7.248;2023-04-24T07:14:06;8.60;99.90
43671;DHT22;29267;50.906;7.248;2023-04-24T07:16:32;8.60;99.90
43671;DHT22;29267;50.906;7.248;2023-04-24T07:18:57;8.60;99.90
43671;DHT22;29267;50.906;7.248;2023-04-24T07:21:23;8.70;99.90
43671;DHT22;29267;50.906;7.248;2023-04-24T07:23:48;8.80;99.90
43671;DHT22;29267;50.906;7.248;2023-04-24T07:26:14;8.80;99.90
43671;DHT22;29267;50.906;7.248;2023-04-24T07:28:40;8.70;99.90
43671;DHT22;29267;50.906;7.248;2023-04-24T07:31:07;8.70;99.90
43671;DHT22;29267;50.906;7.248;2023-04-24T07:33:33;8.60;99.90
43671;DHT22;29267;50.906;7.248;2023-04-24T07:35:58;8.60;99.90
43671;DHT22;29267;50.906;7.248;2023-04-24T07:38:24;8.60;99.90
43671;DHT22;29267;50.906;7.248;2023-04-24T07:40:51;8.50;99.90
43671;DHT22;29267;50.906;7.248;2023-04-24T07:43:17;8.50;99.90
43671;DHT22;29267;50.906;7.248;2023-04-24T07:45:43;8.50;99.90
43671;DHT22;29267;50.906;7.248;2023-04-24T07:48:09;8.40;99.90
43671;DHT22;29267;50.906;7.248;2023-04-24T07:50:35;8.40;99.90
43671;DHT22;29267;50.906;7.248;2023-04-24T07:53:01;8.40;99.90
43671;DHT22;29267;50.906;7.248;2023-04-24T07:55:27;8.40;99.90
43671;DHT22;29267;50.906;7.248;2023-04-24T07:57:52;8.30;99.90
43671;DHT22;29267;50.906;7.248;2023-04-24T08:00:18;8.40;99.90
43671;DHT22;29267;50.906;7.248;2023-04-24T08:02:44;8.40;99.90
43671;DHT22;29267;50.906;7.248;2023-04-24T08:05:09;8.30;99.90
43671;DHT22;29267;50.906;7.248;2023-04-24T08:07:35;8.30;99.90
43671;DHT22;29267;50.906;7.248;2023-04-24T08:10:01;8.30;99.90
43671;DHT22;29267;50.906;7.248;2023-04-24T08:12:30;8.20;99.90
43671;DHT22;29267;50.906;7.248;2023-04-24T08:14:56;8.00;99.90
43671;DHT22;29267;50.906;7.248;2023-04-24T08:17:21;8.00;99.90
43671;DHT22;29267;50.906;7.248;2023-04-24T08:19:47;8.00;99.90
43671;DHT22;29267;50.906;7.248;2023-04-24T08:22:16;7.90;99.90
43671;DHT22;29267;50.906;7.248;2023-04-24T08:24:42;7.80;99.90
43671;DHT22;29267;50.906;7.248;2023-04-24T08:27:08;7.80;99.90
43671;DHT22;29267;50.906;7.248;2023-04-24T08:29:34;7.70;99.90
43671;DHT22;29267;50.906;7.248;2023-04-24T08:31:59;7.70;99.90
43671;DHT22;29267;50.906;7.248;2023-04-24T08:34:25;7.60;99.90
43671;DHT22;29267;50.906;7.248;2023-04-24T08:36:51;7.50;99.90
43671;DHT22;29267;50.906;7.248;2023-04-24T08:39:17;7.50;99.90
43671;DHT22;29267;50.906;7.248;2023-04-24T08:41:43;7.50;99.90
43671;DHT22;29267;50.906;7.248;2023-04-24T08:44:11;7.50;99.90
43671;DHT22;29267;50.906;7.248;2023-04-24T08:46:38;7.40;99.90
43671;DHT22;29267;50.906;7.248;2023-04-24T08:49:05;7.40;99.90
43671;DHT22;29267;50.906;7.248;2023-04-24T08:51:31;7.20;99.90
43671;DHT22;29267;50.906;7.248;2023-04-24T08:53:57;7.10;99.90
43671;DHT22;29267;50.906;7.248;2023-04-24T08:56:23;7.00;99.90
43671;DHT22;29267;50.906;7.248;2023-04-24T08:58:53;6.80;99.90
43671;DHT22;29267;50.906;7.248;2023-04-24T09:01:20;6.70;99.90
43671;DHT22;29267;50.906;7.248;2023-04-24T09:03:48;6.70;99.90
43671;DHT22;29267;50.906;7.248;2023-04-24T09:06:15;6.70;99.90
43671;DHT22;29267;50.906;7.248;2023-04-24T09:08:42;6.60;99.90
43671;DHT22;29267;50.906;7.248;2023-04-24T09:11:10;6.70;99.90
43671;DHT22;29267;50.906;7.248;2023-04-24T09:13:36;6.70;99.90
43671;DHT22;29267;50.906;7.248;2023-04-24T09:16:02;6.70;99.90
43671;DHT22;29267;50.906;7.248;2023-04-24T09:18:28;6.70;99.90
43671;DHT22;29267;50.906;7.248;2023-04-24T09:21:02;6.70;99.90
43671;DHT22;29267;50.906;7.248;2023-04-24T09:23:29;6.80;99.90
43671;DHT22;29267;50.906;7.248;2023-04-24T09:25:56;6.80;99.90
43671;DHT22;29267;50.906;7.248;2023-04-24T09:28:26;6.80;99.90
43671;DHT22;29267;50.906;7.248;2023-04-24T09:33:33;6.80;99.90
43671;DHT22;29267;50.906;7.248;2023-04-24T09:35:58;6.90;99.90
43671;DHT22;29267;50.906;7.248;2023-04-24T09:38:37;6.90;99.90
43671;DHT22;29267;50.906;7.248;2023-04-24T09:41:05;7.00;99.90
43671;DHT22;29267;50.906;7.248;2023-04-24T09:43:31;7.00;99.90
43671;DHT22;29267;50.906;7.248;2023-04-24T09:45:58;7.10;99.90
43671;DHT22;29267;50.906;7.248;2023-04-24T09:48:34;7.20;99.90
43671;DHT22;29267;50.906;7.248;2023-04-24T09:51:05;7.30;99.90
43671;DHT22;29267;50.906;7.248;2023-04-24T09:53:36;7.30;99.90
43671;DHT22;29267;50.906;7.248;2023-04-24T09:56:06;7.30;99.90
43671;DHT22;29267;50.906;7.248;2023-04-24T09:58:32;7.40;99.90
43671;DHT22;29267;50.906;7.248;2023-04-24T10:00:57;7.40;99.90
43671;DHT22;29267;50.906;7.248;2023-04-24T10:03:30;7.50;99.90
43671;DHT22;29267;50.906;7.248;2023-04-24T10:05:59;7.60;99.90
43671;DHT22;29267;50.906;7.248;2023-04-24T10:08:25;7.70;99.90
43671;DHT22;29267;50.906;7.248;2023-04-24T10:10:52;7.80;99.90
43671;DHT22;29267;50.906;7.248;2023-04-24T10:13:18;7.90;99.90
43671;DHT22;29267;50.906;7.248;2023-04-24T10:15:44;8.00;99.90
43671;DHT22;29267;50.906;7.248;2023-04-24T10:18:10;8.20;99.90
43671;DHT22;29267;50.906;7.248;2023-04-24T10:20:38;8.20;99.90
43671;DHT22;29267;50.906;7.248;2023-04-24T10:23:05;8.20;99.90
43671;DHT22;29267;50.906;7.248;2023-04-24T10:25:32;8.50;99.90
43671;DHT22;29267;50.906;7.248;2023-04-24T10:27:59;8.70;99.90
43671;DHT22;29267;50.906;7.248;2023-04-24T10:30:27;8.80;99.90
43671;DHT22;29267;50.906;7.248;2023-04-24T10:32:53;9.00;99.90
43671;DHT22;29267;50.906;7.248;2023-04-24T10:35:19;9.10;99.90
43671;DHT22;29267;50.906;7.248;2023-04-24T10:40:50;9.10;99.90
43671;DHT22;29267;50.906;7.248;2023-04-24T10:43:17;9.30;99.90
43671;DHT22;29267;50.906;7.248;2023-04-24T10:46:04;9.40;99.90
43671;DHT22;29267;50.906;7.248;2023-04-24T10:48:31;9.60;99.90
43671;DHT22;29267;50.906;7.248;2023-04-24T10:50:57;9.70;99.90
43671;DHT22;29267;50.906;7.248;2023-04-24T10:53:27;10.00;99.90
43671;DHT22;29267;50.906;7.248;2023-04-24T10:56:06;10.40;99.90
43671;DHT22;29267;50.906;7.248;2023-04-24T10:58:51;10.70;99.90
43671;DHT22;29267;50.906;7.248;2023-04-24T11:01:30;10.80;99.90
43671;DHT22;29267;50.906;7.248;2023-04-24T11:04:00;10.60;99.90
43671;DHT22;29267;50.906;7.248;2023-04-24T11:06:32;10.30;99.90
43671;DHT22;29267;50.906;7.248;2023-04-24T11:09:08;10.10;99.90
43671;DHT22;29267;50.906;7.248;2023-04-24T11:11:36;9.80;99.90
43671;DHT22;29267;50.906;7.248;2023-04-24T11:14:04;9.60;99.90
43671;DHT22;29267;50.906;7.248;2023-04-24T11:16:53;9.60;99.90
43671;DHT22;29267;50.906;7.248;2023-04-24T11:19:24;10.00;99.90
43671;DHT22;29267;50.906;7.248;2023-04-24T11:22:00;10.20;99.90
43671;DHT22;29267;50.906;7.248;2023-04-24T11:34:54;9.60;99.90
43671;DHT22;29267;50.906;7.248;2023-04-24T11:37:44;9.50;99.90
43671;DHT22;29267;50.906;7.248;2023-04-24T11:40:10;9.50;99.90
43671;DHT22;29267;50.906;7.248;2023-04-24T11:42:38;9.40;99.90
43671;DHT22;29267;50.906;7.248;2023-04-24T11:45:16;9.20;99.90
43671;DHT22;29267;50.906;7.248;2023-04-24T11:47:43;9.20;99.90
43671;DHT22;29267;50.906;7.248;2023-04-24T11:50:13;9.20;99.90
43671;DHT22;29267;50.906;7.248;2023-04-24T11:52:47;8.90;99.90
43671;DHT22;29267;50.906;7.248;2023-04-24T11:57:46;9.00;99.90
43671;DHT22;29267;50.906;7.248;2023-04-24T12:00:16;8.80;99.90
43671;DHT22;29267;50.906;7.248;2023-04-24T12:02:42;8.80;99.90
43671;DHT22;29267;50.906;7.248;2023-04-24T12:05:08;8.80;99.90
43671;DHT22;29267;50.906;7.248;2023-04-24T12:07:41;8.80;99.90
43671;DHT22;29267;50.906;7.248;2023-04-24T12:10:09;9.00;99.90
43671;DHT22;29267;50.906;7.248;2023-04-24T12:12:35;9.30;99.90
43671;DHT22;29267;50.906;7.248;2023-04-24T12:15:05;10.10;99.90
43671;DHT22;29267;50.906;7.248;2023-04-24T12:17:32;10.70;99.90
43671;DHT22;29267;50.906;7.248;2023-04-24T12:20:06;11.00;99.90
43671;DHT22;29267;50.906;7.248;2023-04-24T12:22:48;11.40;99.90
43671;DHT22;29267;50.906;7.248;2023-04-24T12:25:16;11.60;99.90
43671;DHT22;29267;50.906;7.248;2023-04-24T12:27:44;11.70;99.90
43671;DHT22;29267;50.906;7.248;2023-04-24T12:30:12;12.10;99.90
43671;DHT22;29267;50.906;7.248;2023-04-24T12:32:43;11.90;99.90
43671;DHT22;29267;50.906;7.248;2023-04-24T12:35:09;11.90;99.90
43671;DHT22;29267;50.906;7.248;2023-04-24T12:37:34;11.80;99.90
43671;DHT22;29267;50.906;7.248;2023-04-24T12:42:30;11.50;99.90
43671;DHT22;29267;50.906;7.248;2023-04-24T12:45:03;11.70;99.90
43671;DHT22;29267;50.906;7.248;2023-04-24T12:47:31;11.50;99.90
43671;DHT22;29267;50.906;7.248;2023-04-24T12:49:56;11.50;99.90
43671;DHT22;29267;50.906;7.248;2023-04-24T12:52:23;11.30;99.90
43671;DHT22;29267;50.906;7.248;2023-04-24T12:54:50;11.30;99.90
43671;DHT22;29267;50.906;7.248;2023-04-24T12:57:17;11.20;99.90
43671;DHT22;29267;50.906;7.248;2023-04-24T12:59:42;11.00;99.90
43671;DHT22;29267;50.906;7.248;2023-04-24T13:02:08;10.90;99.90
43671;DHT22;29267;50.906;7.248;2023-04-24T13:04:35;10.70;99.90
43671;DHT22;29267;50.906;7.248;2023-04-24T13:07:01;10.60;99.90
43671;DHT22;29267;50.906;7.248;2023-04-24T13:09:27;10.90;99.90
43671;DHT22;29267;50.906;7.248;2023-04-24T13:11:52;11.10;99.90
43671;DHT22;29267;50.906;7.248;2023-04-24T13:14:18;11.10;99.90
43671;DHT22;29267;50.906;7.248;2023-04-24T13:16:43;11.40;99.90
43671;DHT22;29267;50.906;7.248;2023-04-24T13:19:09;11.50;99.90
43671;DHT22;29267;50.906;7.248;2023-04-24T13:21:35;11.60;99.90
43671;DHT22;29267;50.906;7.248;2023-04-24T13:24:00;11.60;99.90
43671;DHT22;29267;50.906;7.248;2023-04-24T13:26:26;11.50;99.90
43671;DHT22;29267;50.906;7.248;2023-04-24T13:28:52;11.70;99.90
43671;DHT22;29267;50.906;7.248;2023-04-24T13:31:17;12.00;99.90
43671;DHT22;29267;50.906;7.248;2023-04-24T13:33:43;12.10;99.90
43671;DHT22;29267;50.906;7.248;2023-04-24T13:36:08;12.30;99.90
43671;DHT22;29267;50.906;7.248;2023-04-24T13:38:34;12.30;99.90
43671;DHT22;29267;50.906;7.248;2023-04-24T13:41:00;12.10;99.90
43671;DHT22;29267;50.906;7.248;2023-04-24T13:43:26;11.80;99.90
43671;DHT22;29267;50.906;7.248;2023-04-24T13:45:52;11.60;99.90
43671;DHT22;29267;50.906;7.248;2023-04-24T13:48:17;11.50;99.90
43671;DHT22;29267;50.906;7.248;2023-04-24T13:50:43;11.50;99.90
43671;DHT22;29267;50.906;7.248;2023-04-24T13:53:09;11.40;99.90
43671;DHT22;29267;50.906;7.248;2023-04-24T13:55:35;11.40;99.90
43671;DHT22;29267;50.906;7.248;2023-04-24T13:58:01;11.40;99.90
43671;DHT22;29267;50.906;7.248;2023-04-24T14:00:28;11.70;99.90
43671;DHT22;29267;50.906;7.248;2023-04-24T14:02:54;11.70;99.90
43671;DHT22;29267;50.906;7.248;2023-04-24T14:05:20;12.00;99.90
43671;DHT22;29267;50.906;7.248;2023-04-24T14:07:47;12.10;99.90
43671;DHT22;29267;50.906;7.248;2023-04-24T14:10:12;12.10;99.90
43671;DHT22;29267;50.906;7.248;2023-04-24T14:12:38;12.00;99.90
43671;DHT22;29267;50.906;7.248;2023-04-24T14:15:04;12.00;99.90
43671;DHT22;29267;50.906;7.248;2023-04-24T14:17:30;11.80;99.90
43671;DHT22;29267;50.906;7.248;2023-04-24T14:19:56;11.50;99.90
43671;DHT22;29267;50.906;7.248;2023-04-24T14:22:22;11.30;99.90
43671;DHT22;29267;50.906;7.248;2023-04-24T14:24:48;11.20;99.90
43671;DHT22;29267;50.906;7.248;2023-04-24T14:27:13;11.20;99.90
43671;DHT22;29267;50.906;7.248;2023-04-24T14:29:39;11.20;99.90
43671;DHT22;29267;50.906;7.248;2023-04-24T14:32:05;11.20;99.90
43671;DHT22;29267;50.906;7.248;2023-04-24T14:34:30;11.20;99.90
43671;DHT22;29267;50.906;7.248;2023-04-24T14:36:56;11.30;99.90
43671;DHT22;29267;50.906;7.248;2023-04-24T14:39:21;11.50;99.90
43671;DHT22;29267;50.906;7.248;2023-04-24T14:41:47;11.50;99.90
43671;DHT22;29267;50.906;7.248;2023-04-24T14:44:13;11.50;99.90
43671;DHT22;29267;50.906;7.248;2023-04-24T14:46:38;11.70;99.90
43671;DHT22;29267;50.906;7.248;2023-04-24T14:49:04;11.60;99.90
43671;DHT22;29267;50.906;7.248;2023-04-24T14:51:30;11.60;99.90
43671;DHT22;29267;50.906;7.248;2023-04-24T14:53:56;11.70;99.90
43671;DHT22;29267;50.906;7.248;2023-04-24T14:56:22;11.80;99.90
43671;DHT22;29267;50.906;7.248;2023-04-24T14:58:48;12.00;99.90
43671;DHT22;29267;50.906;7.248;2023-04-24T15:01:14;12.10;99.90
43671;DHT22;29267;50.906;7.248;2023-04-24T15:03:39;12.20;99.90
43671;DHT22;29267;50.906;7.248;2023-04-24T15:06:05;12.20;99.90
43671;DHT22;29267;50.906;7.248;2023-04-24T15:08:31;12.20;99.90
43671;DHT22;29267;50.906;7.248;2023-04-24T15:10:57;12.00;99.90
43671;DHT22;29267;50.906;7.248;2023-04-24T15:13:22;11.90;99.90
43671;DHT22;29267;50.906;7.248;2023-04-24T15:15:48;12.00;99.90
43671;DHT22;29267;50.906;7.248;2023-04-24T15:18:14;12.00;99.90
43671;DHT22;29267;50.906;7.248;2023-04-24T15:20:39;12.20;99.90
43671;DHT22;29267;50.906;7.248;2023-04-24T15:23:08;12.30;99.90
43671;DHT22;29267;50.906;7.248;2023-04-24T15:25:34;12.30;99.90
43671;DHT22;29267;50.906;7.248;2023-04-24T15:28:00;12.30;99.90
43671;DHT22;29267;50.906;7.248;2023-04-24T15:30:26;12.20;99.90
43671;DHT22;29267;50.906;7.248;2023-04-24T15:32:52;12.00;99.90
43671;DHT22;29267;50.906;7.248;2023-04-24T15:35:17;11.80;99.90
43671;DHT22;29267;50.906;7.248;2023-04-24T15:37:43;11.70;99.90
43671;DHT22;29267;50.906;7.248;2023-04-24T15:40:10;11.70;99.90
43671;DHT22;29267;50.906;7.248;2023-04-24T15:42:38;11.70;99.90
43671;DHT22;29267;50.906;7.248;2023-04-24T15:45:04;11.70;99.90
43671;DHT22;29267;50.906;7.248;2023-04-24T15:47:31;11.80;99.90
43671;DHT22;29267;50.906;7.248;2023-04-24T15:49:57;11.90;99.90
43671;DHT22;29267;50.906;7.248;2023-04-24T15:52:23;11.80;99.90
43671;DHT22;29267;50.906;7.248;2023-04-24T15:54:48;11.60;99.90
43671;DHT22;29267;50.906;7.248;2023-04-24T15:57:14;11.70;99.90